Warrenton, Indiana
Current Conditions -  °F | °C
As of 7:54 AM on Saturday 25 Oct 2014 (Local Time) from KEVV Reporting Station
Overcast Overcast  
Wind Chill: 59°   Ceiling: 2600
Heat Index: 59°   Visibility: 10mi
Dew Point: 54°   Wind: 6mph
Humidity: 83%   Direction: 230°SW
Pressure: 30.03"   Gusts: NA
Location:  38.1827°N, 87.5887°W
Report Text: KEVV 251254Z 23005KT 10SM OVC026 15/12 A3003 RMK AO2 SLP167 T01500122
Loading
Personal Weather Stations






























Interactive Weather Map
Tropical Storm Tracking
New forecast layout! Learn more

10-Day Weather Forecast

Advertisements
Track Severe Weather on mobile